sensor_id;sensor_type;location;lat;lon;timestamp;pressure;altitude;pressure_sealevel;temperature;humidity
32759;BME280;19125;52.360;9.974;2023-05-23T00:00:45;-13028.22;;;-145.17;73.77
32759;BME280;19125;52.360;9.974;2023-05-23T00:03:12;-13523.50;;;-145.17;73.87
32759;BME280;19125;52.360;9.974;2023-05-23T00:05:37;-13771.13;;;-145.17;73.96
32759;BME280;19125;52.360;9.974;2023-05-23T00:08:02;-14266.31;;;-145.17;74.05
32759;BME280;19125;52.360;9.974;2023-05-23T00:10:28;-14513.88;;;-145.17;73.99
32759;BME280;19125;52.360;9.974;2023-05-23T00:12:53;-15009.00;;;-145.17;74.30
32759;BME280;19125;52.360;9.974;2023-05-23T00:15:19;-15009.00;;;-145.17;74.59
32759;BME280;19125;52.360;9.974;2023-05-23T00:17:45;-15010.44;;;-145.17;74.42
32759;BME280;19125;52.360;9.974;2023-05-23T00:20:11;-15010.44;;;-145.17;74.87
32759;BME280;19125;52.360;9.974;2023-05-23T00:22:37;-15010.44;;;-145.17;74.73
32759;BME280;19125;52.360;9.974;2023-05-23T00:25:12;-15010.44;;;-145.17;74.77
32759;BME280;19125;52.360;9.974;2023-05-23T00:27:37;-15010.44;;;-145.17;75.02
32759;BME280;19125;52.360;9.974;2023-05-23T00:30:03;-15010.44;;;-145.17;75.07
32759;BME280;19125;52.360;9.974;2023-05-23T00:32:28;-15010.44;;;-145.17;75.12
32759;BME280;19125;52.360;9.974;2023-05-23T00:34:54;-15010.44;;;-145.17;75.17
32759;BME280;19125;52.360;9.974;2023-05-23T00:37:20;-15010.44;;;-145.17;75.00
32759;BME280;19125;52.360;9.974;2023-05-23T00:39:47;-15010.44;;;-145.17;74.94
32759;BME280;19125;52.360;9.974;2023-05-23T00:42:12;-15010.44;;;-145.17;75.01
32759;BME280;19125;52.360;9.974;2023-05-23T00:44:37;-15010.44;;;-145.17;75.02
32759;BME280;19125;52.360;9.974;2023-05-23T00:47:05;-15010.44;;;-145.17;75.06
32759;BME280;19125;52.360;9.974;2023-05-23T00:49:31;-15010.44;;;-145.17;75.00
32759;BME280;19125;52.360;9.974;2023-05-23T00:51:57;-15010.44;;;-145.17;75.17
32759;BME280;19125;52.360;9.974;2023-05-23T00:54:25;-15010.44;;;-145.17;75.05
32759;BME280;19125;52.360;9.974;2023-05-23T00:56:51;-15010.44;;;-145.17;74.98
32759;BME280;19125;52.360;9.974;2023-05-23T00:59:17;-15010.44;;;-145.17;75.03
32759;BME280;19125;52.360;9.974;2023-05-23T01:01:45;-15010.44;;;-145.17;75.06
32759;BME280;19125;52.360;9.974;2023-05-23T01:04:12;-15010.44;;;-145.17;74.84
32759;BME280;19125;52.360;9.974;2023-05-23T01:06:38;-15010.44;;;-145.17;75.16
32759;BME280;19125;52.360;9.974;2023-05-23T01:09:04;-15010.44;;;-145.17;74.96
32759;BME280;19125;52.360;9.974;2023-05-23T01:11:44;-15010.44;;;-145.17;74.92
32759;BME280;19125;52.360;9.974;2023-05-23T01:14:19;-15010.44;;;-145.17;75.01
32759;BME280;19125;52.360;9.974;2023-05-23T01:16:52;-15010.44;;;-145.17;74.94
32759;BME280;19125;52.360;9.974;2023-05-23T01:19:50;-15010.44;;;-145.17;74.85
32759;BME280;19125;52.360;9.974;2023-05-23T01:22:28;-15010.44;;;-145.17;74.79
32759;BME280;19125;52.360;9.974;2023-05-23T01:25:08;-15010.44;;;-145.17;74.84
32759;BME280;19125;52.360;9.974;2023-05-23T01:27:50;-15010.44;;;-145.17;74.77
32759;BME280;19125;52.360;9.974;2023-05-23T01:30:18;-15010.44;;;-145.17;74.67
32759;BME280;19125;52.360;9.974;2023-05-23T01:32:47;-15010.44;;;-145.17;74.59
32759;BME280;19125;52.360;9.974;2023-05-23T01:35:14;-15010.44;;;-145.17;74.53
32759;BME280;19125;52.360;9.974;2023-05-23T01:37:43;-15010.44;;;-145.17;74.44
32759;BME280;19125;52.360;9.974;2023-05-23T01:40:08;-15010.44;;;-145.17;74.22
32759;BME280;19125;52.360;9.974;2023-05-23T01:42:34;-15010.44;;;-145.17;74.27
32759;BME280;19125;52.360;9.974;2023-05-23T01:44:59;-15010.44;;;-145.17;74.26
32759;BME280;19125;52.360;9.974;2023-05-23T01:47:25;-15009.00;;;-145.17;74.05
32759;BME280;19125;52.360;9.974;2023-05-23T01:49:51;-14761.44;;;-145.17;73.91
32759;BME280;19125;52.360;9.974;2023-05-23T01:52:18;-14513.88;;;-145.17;73.61
32759;BME280;19125;52.360;9.974;2023-05-23T01:54:45;-14018.72;;;-145.17;73.57
32759;BME280;19125;52.360;9.974;2023-05-23T01:57:13;-13523.50;;;-145.17;73.70
32759;BME280;19125;52.360;9.974;2023-05-23T01:59:39;-13275.88;;;-145.17;73.42
32759;BME280;19125;52.360;9.974;2023-05-23T02:02:04;-12532.84;;;-145.17;73.14
32759;BME280;19125;52.360;9.974;2023-05-23T02:04:30;-11541.97;;;-145.17;72.83
32759;BME280;19125;52.360;9.974;2023-05-23T02:06:56;-11046.41;;;-145.17;72.66
32759;BME280;19125;52.360;9.974;2023-05-23T02:09:21;-10302.97;;;-145.17;72.50
32759;BME280;19125;52.360;9.974;2023-05-23T02:11:46;-9559.38;;;-145.17;72.46
32759;BME280;19125;52.360;9.974;2023-05-23T02:14:11;-8815.66;;;-145.17;72.42
32759;BME280;19125;52.360;9.974;2023-05-23T02:16:37;-7823.78;;;-145.17;72.08
32759;BME280;19125;52.360;9.974;2023-05-23T02:19:03;-6583.59;;;-145.17;72.08
32759;BME280;19125;52.360;9.974;2023-05-23T02:21:28;-6087.41;;;-145.17;71.93
32759;BME280;19125;52.360;9.974;2023-05-23T02:23:53;-5591.16;;;-145.17;72.10
32759;BME280;19125;52.360;9.974;2023-05-23T02:26:19;-4846.66;;;-145.17;71.93
32759;BME280;19125;52.360;9.974;2023-05-23T02:28:44;-3853.78;;;-145.17;71.60
32759;BME280;19125;52.360;9.974;2023-05-23T02:31:10;-2860.63;;;-145.17;71.58
32759;BME280;19125;52.360;9.974;2023-05-23T02:33:35;-1867.22;;;-145.17;71.60
32759;BME280;19125;52.360;9.974;2023-05-23T02:36:00;-1370.41;;;-145.17;71.36
32759;BME280;19125;52.360;9.974;2023-05-23T02:38:26;-625.09;;;-145.17;71.38
32759;BME280;19125;52.360;9.974;2023-05-23T02:40:51;865.97;;;-145.17;70.96
32759;BME280;19125;52.360;9.974;2023-05-23T02:43:18;3103.63;;;-145.17;70.77
32759;BME280;19125;52.360;9.974;2023-05-23T02:45:43;5591.47;;;-145.17;70.30
32759;BME280;19125;52.360;9.974;2023-05-23T02:48:09;9326.22;;;-145.17;69.66
32759;BME280;19125;52.360;9.974;2023-05-23T02:50:36;12815.25;;;-145.17;69.61
32759;BME280;19125;52.360;9.974;2023-05-23T02:53:01;15558.84;;;-145.17;69.43
32759;BME280;19125;52.360;9.974;2023-05-23T02:55:26;18054.69;;;-145.17;69.30
32759;BME280;19125;52.360;9.974;2023-05-23T02:57:52;20801.97;;;-145.17;69.04
32759;BME280;19125;52.360;9.974;2023-05-23T03:00:18;22051.38;;;-145.17;69.00
32759;BME280;19125;52.360;9.974;2023-05-23T03:02:43;24051.25;;;-145.17;68.77
32759;BME280;19125;52.360;9.974;2023-05-23T03:05:09;26052.16;;;-145.17;68.67
32759;BME280;19125;52.360;9.974;2023-05-23T03:07:34;26802.75;;;-145.17;68.85
32759;BME280;19125;52.360;9.974;2023-05-23T03:10:00;27553.50;;;-145.17;68.63
32759;BME280;19125;52.360;9.974;2023-05-23T03:12:29;28805.09;;;-145.17;68.94
32759;BME280;19125;52.360;9.974;2023-05-23T03:14:54;29305.81;;;-145.17;68.93
32759;BME280;19125;52.360;9.974;2023-05-23T03:17:20;32311.59;;;-145.17;68.46
32759;BME280;19125;52.360;9.974;2023-05-23T03:19:45;36573.75;;;-145.17;68.09
32759;BME280;19125;52.360;9.974;2023-05-23T03:22:11;41342.81;;;-145.17;67.77
32759;BME280;19125;52.360;9.974;2023-05-23T03:24:36;45614.78;;;-145.17;67.29
32759;BME280;19125;52.360;9.974;2023-05-23T03:27:01;47375.16;;;-145.17;67.68
32759;BME280;19125;52.360;9.974;2023-05-23T03:29:27;49639.66;;;-145.17;67.24
32759;BME280;19125;52.360;9.974;2023-05-23T03:31:52;50898.28;;;-145.17;67.19
32759;BME280;19125;52.360;9.974;2023-05-23T03:34:18;52912.91;;;-145.17;66.96
32759;BME280;19125;52.360;9.974;2023-05-23T03:36:43;53416.72;;;-145.17;67.22
32759;BME280;19125;52.360;9.974;2023-05-23T03:39:08;54172.56;;;-145.17;67.13
32759;BME280;19125;52.360;9.974;2023-05-23T03:41:33;54928.56;;;-145.17;67.03
32759;BME280;19125;52.360;9.974;2023-05-23T03:43:59;54172.56;;;-145.17;67.27
32759;BME280;19125;52.360;9.974;2023-05-23T03:46:25;54424.56;;;-145.17;67.14
32759;BME280;19125;52.360;9.974;2023-05-23T03:48:50;54424.56;;;-145.17;67.08
32759;BME280;19125;52.360;9.974;2023-05-23T03:51:16;55180.59;;;-145.17;67.15
32759;BME280;19125;52.360;9.974;2023-05-23T03:53:41;54928.56;;;-145.17;67.16
32759;BME280;19125;52.360;9.974;2023-05-23T03:56:07;54424.56;;;-145.17;67.31
32759;BME280;19125;52.360;9.974;2023-05-23T03:58:32;53668.66;;;-145.17;67.44
32759;BME280;19125;52.360;9.974;2023-05-23T04:00:57;52912.91;;;-145.17;67.30
32759;BME280;19125;52.360;9.974;2023-05-23T04:03:23;51401.84;;;-145.17;67.44
32759;BME280;19125;52.360;9.974;2023-05-23T04:05:50;49639.66;;;-145.17;67.67
32759;BME280;19125;52.360;9.974;2023-05-23T04:08:15;47878.28;;;-145.17;67.78
32759;BME280;19125;52.360;9.974;2023-05-23T04:10:41;46872.09;;;-145.17;68.11
32759;BME280;19125;52.360;9.974;2023-05-23T04:13:06;45111.94;;;-145.17;68.05
32759;BME280;19125;52.360;9.974;2023-05-23T04:15:33;43352.56;;;-145.17;68.21
32759;BME280;19125;52.360;9.974;2023-05-23T04:17:59;41091.66;;;-145.17;68.48
32759;BME280;19125;52.360;9.974;2023-05-23T04:20:24;40338.31;;;-145.17;68.15
32759;BME280;19125;52.360;9.974;2023-05-23T04:22:50;40338.31;;;-145.17;68.29
32759;BME280;19125;52.360;9.974;2023-05-23T04:25:15;40589.41;;;-145.17;68.13
32759;BME280;19125;52.360;9.974;2023-05-23T04:27:43;41091.66;;;-145.17;68.35
32759;BME280;19125;52.360;9.974;2023-05-23T04:30:08;41845.16;;;-145.17;68.22
32759;BME280;19125;52.360;9.974;2023-05-23T04:32:34;43101.28;;;-145.17;67.85
32759;BME280;19125;52.360;9.974;2023-05-23T04:35:00;43101.28;;;-145.17;67.53
32759;BME280;19125;52.360;9.974;2023-05-23T04:37:26;44860.56;;;-145.17;67.77
32759;BME280;19125;52.360;9.974;2023-05-23T04:39:52;45866.22;;;-145.17;67.80
32759;BME280;19125;52.360;9.974;2023-05-23T04:42:17;47626.69;;;-145.17;67.37
32759;BME280;19125;52.360;9.974;2023-05-23T04:44:48;50143.06;;;-145.17;67.45
32759;BME280;19125;52.360;9.974;2023-05-23T04:47:14;53164.81;;;-145.17;67.21
32759;BME280;19125;52.360;9.974;2023-05-23T04:49:39;54676.56;;;-145.17;66.98
32759;BME280;19125;52.360;9.974;2023-05-23T04:52:06;56188.88;;;-145.17;66.93
32759;BME280;19125;52.360;9.974;2023-05-23T04:54:31;57197.41;;;-145.17;67.05
32759;BME280;19125;52.360;9.974;2023-05-23T04:56:57;59719.84;;;-145.17;66.52
32759;BME280;19125;52.360;9.974;2023-05-23T04:59:22;62496.41;;;-145.17;66.48
32759;BME280;19125;52.360;9.974;2023-05-23T05:01:48;63001.44;;;-145.17;66.72
32759;BME280;19125;52.360;9.974;2023-05-23T05:04:13;63001.44;;;-145.17;66.56
32759;BME280;19125;52.360;9.974;2023-05-23T05:06:39;62496.41;;;-145.17;66.45
32759;BME280;19125;52.360;9.974;2023-05-23T05:09:05;61738.97;;;-145.17;66.73
32759;BME280;19125;52.360;9.974;2023-05-23T05:11:30;60476.91;;;-145.17;67.17
32759;BME280;19125;52.360;9.974;2023-05-23T05:13:56;59467.53;;;-145.17;66.96
32759;BME280;19125;52.360;9.974;2023-05-23T05:16:21;58458.44;;;-145.17;67.24
32759;BME280;19125;52.360;9.974;2023-05-23T05:18:46;56440.97;;;-145.17;67.31
32759;BME280;19125;52.360;9.974;2023-05-23T05:21:12;55936.78;;;-145.17;67.13
32759;BME280;19125;52.360;9.974;2023-05-23T05:23:37;54676.56;;;-145.17;67.47
32759;BME280;19125;52.360;9.974;2023-05-23T05:26:02;51905.47;;;-145.17;67.47
32759;BME280;19125;52.360;9.974;2023-05-23T05:28:29;49136.31;;;-145.17;67.87
32759;BME280;19125;52.360;9.974;2023-05-23T05:30:54;46620.59;;;-145.17;68.17
32759;BME280;19125;52.360;9.974;2023-05-23T05:33:21;43352.56;;;-145.17;68.33
32759;BME280;19125;52.360;9.974;2023-05-23T05:35:50;41091.66;;;-145.17;68.24
32759;BME280;19125;52.360;9.974;2023-05-23T05:38:16;39334.09;;;-145.17;68.49
32759;BME280;19125;52.360;9.974;2023-05-23T05:40:41;37075.50;;;-145.17;68.63
32759;BME280;19125;52.360;9.974;2023-05-23T05:43:07;33815.38;;;-145.17;68.95
32759;BME280;19125;52.360;9.974;2023-05-23T05:45:32;29806.63;;;-145.17;69.38
32759;BME280;19125;52.360;9.974;2023-05-23T05:47:58;26302.34;;;-145.17;69.90
32759;BME280;19125;52.360;9.974;2023-05-23T05:50:23;22551.25;;;-145.17;70.18
32759;BME280;19125;52.360;9.974;2023-05-23T05:52:49;19802.72;;;-145.17;70.46
32759;BME280;19125;52.360;9.974;2023-05-23T05:55:14;16307.41;;;-145.17;70.61
32759;BME280;19125;52.360;9.974;2023-05-23T05:57:40;13563.31;;;-145.17;70.86
32759;BME280;19125;52.360;9.974;2023-05-23T06:00:07;10571.94;;;-145.17;71.09
32759;BME280;19125;52.360;9.974;2023-05-23T06:02:38;8828.06;;;-145.17;71.22
32759;BME280;19125;52.360;9.974;2023-05-23T06:05:04;7582.91;;;-145.17;71.37
32759;BME280;19125;52.360;9.974;2023-05-23T06:07:32;6338.13;;;-145.17;71.43
32759;BME280;19125;52.360;9.974;2023-05-23T06:09:58;5591.47;;;-145.17;71.79
32759;BME280;19125;52.360;9.974;2023-05-23T06:12:23;5093.78;;;-145.17;71.76
32759;BME280;19125;52.360;9.974;2023-05-23T06:14:48;4098.59;;;-145.17;71.84
32759;BME280;19125;52.360;9.974;2023-05-23T06:17:14;3601.06;;;-145.17;71.71
32759;BME280;19125;52.360;9.974;2023-05-23T06:19:39;3103.63;;;-145.17;71.93
32759;BME280;19125;52.360;9.974;2023-05-23T06:22:04;2357.59;;;-145.17;71.91
32759;BME280;19125;52.360;9.974;2023-05-23T06:24:30;1611.72;;;-145.17;72.00
32759;BME280;19125;52.360;9.974;2023-05-23T06:26:55;1363.13;;;-145.17;71.92
32759;BME280;19125;52.360;9.974;2023-05-23T06:29:20;865.97;;;-145.17;71.96
32759;BME280;19125;52.360;9.974;2023-05-23T06:31:46;-128.16;;;-145.17;71.97
32759;BME280;19125;52.360;9.974;2023-05-23T06:34:11;-1122.00;;;-145.17;72.61
32759;BME280;19125;52.360;9.974;2023-05-23T06:36:36;-2115.59;;;-145.17;72.38
32759;BME280;19125;52.360;9.974;2023-05-23T06:39:02;-3357.22;;;-145.17;72.87
32759;BME280;19125;52.360;9.974;2023-05-23T06:41:27;-4350.25;;;-145.17;73.00
32759;BME280;19125;52.360;9.974;2023-05-23T06:43:53;-5591.16;;;-145.17;72.91
32759;BME280;19125;52.360;9.974;2023-05-23T06:46:19;-6583.59;;;-145.17;73.40
32759;BME280;19125;52.360;9.974;2023-05-23T06:48:44;-7327.75;;;-145.17;73.23
32759;BME280;19125;52.360;9.974;2023-05-23T06:51:09;-8319.75;;;-145.17;73.42
32759;BME280;19125;52.360;9.974;2023-05-23T06:53:35;-8815.66;;;-145.17;73.33
32759;BME280;19125;52.360;9.974;2023-05-23T06:56:00;-9311.50;;;-145.17;73.42
32759;BME280;19125;52.360;9.974;2023-05-23T06:58:26;-9559.38;;;-145.17;73.32
32759;BME280;19125;52.360;9.974;2023-05-23T07:00:51;-10302.97;;;-145.17;73.42
32759;BME280;19125;52.360;9.974;2023-05-23T07:03:16;-10550.78;;;-145.17;73.31
32759;BME280;19125;52.360;9.974;2023-05-23T07:05:42;-10798.59;;;-145.17;73.62
32759;BME280;19125;52.360;9.974;2023-05-23T07:08:07;-11046.41;;;-145.17;73.40
32759;BME280;19125;52.360;9.974;2023-05-23T07:10:35;-11046.41;;;-145.17;73.43
32759;BME280;19125;52.360;9.974;2023-05-23T07:13:00;-11294.19;;;-145.17;73.48
32759;BME280;19125;52.360;9.974;2023-05-23T07:15:25;-11541.97;;;-145.17;73.34
32759;BME280;19125;52.360;9.974;2023-05-23T07:17:50;-11789.69;;;-145.17;73.66
32759;BME280;19125;52.360;9.974;2023-05-23T07:20:16;-12285.16;;;-145.17;74.03
32759;BME280;19125;52.360;9.974;2023-05-23T07:22:41;-12532.84;;;-145.17;74.11
32759;BME280;19125;52.360;9.974;2023-05-23T07:25:07;-12780.53;;;-145.17;74.14
32759;BME280;19125;52.360;9.974;2023-05-23T07:27:33;-12780.53;;;-145.17;73.75
32759;BME280;19125;52.360;9.974;2023-05-23T07:29:59;-12532.84;;;-145.17;73.72
32759;BME280;19125;52.360;9.974;2023-05-23T07:32:25;-11789.69;;;-145.17;73.48
32759;BME280;19125;52.360;9.974;2023-05-23T07:34:50;-10798.59;;;-145.17;73.10
32759;BME280;19125;52.360;9.974;2023-05-23T07:37:16;-9807.25;;;-145.17;72.88
32759;BME280;19125;52.360;9.974;2023-05-23T07:39:41;-8567.72;;;-145.17;72.91
32759;BME280;19125;52.360;9.974;2023-05-23T07:42:06;-8567.72;;;-145.17;72.78
32759;BME280;19125;52.360;9.974;2023-05-23T07:44:32;-8815.66;;;-145.17;72.76
32759;BME280;19125;52.360;9.974;2023-05-23T07:46:57;-8567.72;;;-145.17;72.63
32759;BME280;19125;52.360;9.974;2023-05-23T07:49:22;-8567.72;;;-145.17;72.67
32759;BME280;19125;52.360;9.974;2023-05-23T07:51:48;-8319.75;;;-145.17;72.67
32759;BME280;19125;52.360;9.974;2023-05-23T07:54:13;-7823.78;;;-145.17;72.68
32759;BME280;19125;52.360;9.974;2023-05-23T07:56:38;-6831.66;;;-145.17;72.44
32759;BME280;19125;52.360;9.974;2023-05-23T07:59:04;-6087.41;;;-145.17;72.03
32759;BME280;19125;52.360;9.974;2023-05-23T08:01:29;-5094.84;;;-145.17;72.13
32759;BME280;19125;52.360;9.974;2023-05-23T08:03:55;-4598.47;;;-145.17;72.03
32759;BME280;19125;52.360;9.974;2023-05-23T08:06:20;-4350.25;;;-145.17;72.32
32759;BME280;19125;52.360;9.974;2023-05-23T08:08:46;-4350.25;;;-145.17;72.03
32759;BME280;19125;52.360;9.974;2023-05-23T08:11:11;-3853.78;;;-145.17;72.36
32759;BME280;19125;52.360;9.974;2023-05-23T08:13:37;-4350.25;;;-145.17;72.41
32759;BME280;19125;52.360;9.974;2023-05-23T08:16:02;-4846.66;;;-145.17;72.36
32759;BME280;19125;52.360;9.974;2023-05-23T08:18:27;-5094.84;;;-145.17;72.47
32759;BME280;19125;52.360;9.974;2023-05-23T08:20:55;-5591.16;;;-145.17;72.89
32759;BME280;19125;52.360;9.974;2023-05-23T08:23:20;-6335.50;;;-145.17;73.02
32759;BME280;19125;52.360;9.974;2023-05-23T08:25:45;-7079.72;;;-145.17;72.75
32759;BME280;19125;52.360;9.974;2023-05-23T08:28:11;-7327.75;;;-145.17;72.90
32759;BME280;19125;52.360;9.974;2023-05-23T08:30:36;-7079.72;;;-145.17;72.88
32759;BME280;19125;52.360;9.974;2023-05-23T08:33:01;-6831.66;;;-145.17;73.11
32759;BME280;19125;52.360;9.974;2023-05-23T08:35:29;-5343.00;;;-145.17;72.75
32759;BME280;19125;52.360;9.974;2023-05-23T08:37:59;-3853.78;;;-145.17;72.00
32759;BME280;19125;52.360;9.974;2023-05-23T08:40:26;-2612.28;;;-145.17;71.89
32759;BME280;19125;52.360;9.974;2023-05-23T08:42:53;-1618.84;;;-145.17;71.74
32759;BME280;19125;52.360;9.974;2023-05-23T08:45:19;-873.56;;;-145.17;71.95
32759;BME280;19125;52.360;9.974;2023-05-23T08:47:45;-873.56;;;-145.17;71.82
32759;BME280;19125;52.360;9.974;2023-05-23T08:50:15;-873.56;;;-145.17;71.66
32759;BME280;19125;52.360;9.974;2023-05-23T08:55:17;-376.63;;;-145.17;71.69
32759;BME280;19125;52.360;9.974;2023-05-23T08:57:43;368.88;;;-145.17;71.60
32759;BME280;19125;52.360;9.974;2023-05-23T09:00:11;-128.16;;;-145.17;71.81
32759;BME280;19125;52.360;9.974;2023-05-23T09:02:40;-128.16;;;-145.17;71.89
32759;BME280;19125;52.360;9.974;2023-05-23T09:05:07;-376.63;;;-145.17;72.02
32759;BME280;19125;52.360;9.974;2023-05-23T09:07:34;-625.09;;;-145.17;72.03
32759;BME280;19125;52.360;9.974;2023-05-23T09:10:00;-625.09;;;-145.17;71.90
32759;BME280;19125;52.360;9.974;2023-05-23T09:12:25;-1122.00;;;-145.17;72.16
32759;BME280;19125;52.360;9.974;2023-05-23T09:14:50;-873.56;;;-145.17;72.20
32759;BME280;19125;52.360;9.974;2023-05-23T09:17:19;-1370.41;;;-145.17;72.03
32759;BME280;19125;52.360;9.974;2023-05-23T09:19:46;-873.56;;;-145.17;72.00
32759;BME280;19125;52.360;9.974;2023-05-23T09:22:12;-1122.00;;;-145.17;72.02
32759;BME280;19125;52.360;9.974;2023-05-23T09:24:37;-1618.84;;;-145.17;71.97
32759;BME280;19125;52.360;9.974;2023-05-23T09:27:06;-2115.59;;;-145.17;72.45
32759;BME280;19125;52.360;9.974;2023-05-23T09:29:32;-2860.63;;;-145.17;72.45
32759;BME280;19125;52.360;9.974;2023-05-23T09:32:11;-3108.94;;;-145.17;72.53
32759;BME280;19125;52.360;9.974;2023-05-23T09:34:47;-3605.50;;;-145.17;72.63
32759;BME280;19125;52.360;9.974;2023-05-23T09:37:18;-3853.78;;;-145.17;72.43
32759;BME280;19125;52.360;9.974;2023-05-23T09:39:47;-4350.25;;;-145.17;72.59
32759;BME280;19125;52.360;9.974;2023-05-23T09:42:20;-4102.00;;;-145.17;72.74
32759;BME280;19125;52.360;9.974;2023-05-23T09:44:49;-4350.25;;;-145.17;72.49
32759;BME280;19125;52.360;9.974;2023-05-23T09:47:15;-3853.78;;;-145.17;72.17
32759;BME280;19125;52.360;9.974;2023-05-23T09:49:45;-2860.63;;;-145.17;72.12
32759;BME280;19125;52.360;9.974;2023-05-23T09:52:12;-2115.59;;;-145.17;71.95
32759;BME280;19125;52.360;9.974;2023-05-23T09:54:38;-1867.22;;;-145.17;72.14
32759;BME280;19125;52.360;9.974;2023-05-23T09:57:07;-1370.41;;;-145.17;72.00
32759;BME280;19125;52.360;9.974;2023-05-23T09:59:34;-1122.00;;;-145.17;71.75
32759;BME280;19125;52.360;9.974;2023-05-23T10:02:05;120.34;;;-145.17;71.67
32759;BME280;19125;52.360;9.974;2023-05-23T10:04:33;1363.13;;;-145.17;71.53
32759;BME280;19125;52.360;9.974;2023-05-23T10:07:13;2606.25;;;-145.17;71.30
32759;BME280;19125;52.360;9.974;2023-05-23T10:09:41;3352.34;;;-145.17;71.21
32759;BME280;19125;52.360;9.974;2023-05-23T10:12:38;4844.97;;;-145.17;71.08
32759;BME280;19125;52.360;9.974;2023-05-23T10:15:07;7084.94;;;-145.17;70.65
32759;BME280;19125;52.360;9.974;2023-05-23T10:20:17;12565.94;;;-145.17;69.82
32759;BME280;19125;52.360;9.974;2023-05-23T10:22:47;16806.56;;;-145.17;69.57
32759;BME280;19125;52.360;9.974;2023-05-23T10:25:13;19802.72;;;-145.17;69.12
32759;BME280;19125;52.360;9.974;2023-05-23T10:27:39;22551.25;;;-145.17;68.71
32759;BME280;19125;52.360;9.974;2023-05-23T10:30:07;26802.75;;;-145.17;68.34
32759;BME280;19125;52.360;9.974;2023-05-23T10:32:34;31559.94;;;-145.17;68.03
32759;BME280;19125;52.360;9.974;2023-05-23T10:35:14;36824.63;;;-145.17;67.40
32759;BME280;19125;52.360;9.974;2023-05-23T10:46:12;52409.16;;;-145.17;66.80
32759;BME280;19125;52.360;9.974;2023-05-23T10:48:42;52409.16;;;-145.17;67.17
32759;BME280;19125;52.360;9.974;2023-05-23T10:51:13;53920.63;;;-145.17;66.86
32759;BME280;19125;52.360;9.974;2023-05-23T10:53:44;55180.59;;;-145.17;67.15
32759;BME280;19125;52.360;9.974;2023-05-23T10:56:18;54928.56;;;-145.17;67.37
32759;BME280;19125;52.360;9.974;2023-05-23T10:58:51;55432.63;;;-145.17;67.15
32759;BME280;19125;52.360;9.974;2023-05-23T11:01:18;56188.88;;;-145.17;67.15
32759;BME280;19125;52.360;9.974;2023-05-23T11:06:40;60981.69;;;-145.17;67.21
32759;BME280;19125;52.360;9.974;2023-05-23T11:09:11;63001.44;;;-145.17;67.32
32759;BME280;19125;52.360;9.974;2023-05-23T11:12:00;68102.72;;;-145.17;66.97
32759;BME280;19125;52.360;9.974;2023-05-23T11:17:30;78421.94;;;-145.17;66.15
32759;BME280;19125;52.360;9.974;2023-05-23T11:20:05;82690.31;;;-145.17;65.56
32759;BME280;19125;52.360;9.974;2023-05-23T11:22:32;84772.66;;;-145.17;65.06
32759;BME280;19125;52.360;9.974;2023-05-23T11:24:58;85804.28;;;-145.17;64.86
32759;BME280;19125;52.360;9.974;2023-05-23T11:27:35;86191.22;;;-145.17;64.81
32759;BME280;19125;52.360;9.974;2023-05-23T11:30:13;86477.00;;;-145.17;64.56
32759;BME280;19125;52.360;9.974;2023-05-23T11:32:40;86566.28;;;-145.17;64.66
32759;BME280;19125;52.360;9.974;2023-05-23T11:35:07;86758.81;;;-145.17;64.56
32759;BME280;19125;52.360;9.974;2023-05-23T11:37:34;86621.88;;;-145.17;64.68
32759;BME280;19125;52.360;9.974;2023-05-23T11:42:51;87072.38;;;-145.17;63.27
32759;BME280;19125;52.360;9.974;2023-05-23T11:45:20;87088.28;;;-145.17;63.08
32759;BME280;19125;52.360;9.974;2023-05-23T11:47:46;87106.13;;;-145.17;62.24
32759;BME280;19125;52.360;9.974;2023-05-23T11:50:11;87129.94;;;-145.17;62.61
32759;BME280;19125;52.360;9.974;2023-05-23T11:52:37;87131.94;;;-145.17;62.92
32759;BME280;19125;52.360;9.974;2023-05-23T11:55:02;87189.50;;;-145.17;63.39
32759;BME280;19125;52.360;9.974;2023-05-23T11:57:27;87155.75;;;-145.17;63.65
32759;BME280;19125;52.360;9.974;2023-05-23T11:59:53;87159.72;;;-145.17;63.08
32759;BME280;19125;52.360;9.974;2023-05-23T12:02:20;87157.75;;;-145.17;62.78
32759;BME280;19125;52.360;9.974;2023-05-23T12:04:45;87112.09;;;-145.17;61.98
32759;BME280;19125;52.360;9.974;2023-05-23T12:07:12;87082.31;;;-145.17;61.31
32759;BME280;19125;52.360;9.974;2023-05-23T12:09:43;86953.31;;;-145.17;60.07
32759;BME280;19125;52.360;9.974;2023-05-23T12:12:11;86850.09;;;-145.17;58.95
32759;BME280;19125;52.360;9.974;2023-05-23T12:14:36;86742.91;;;-145.17;58.13
32759;BME280;19125;52.360;9.974;2023-05-23T12:17:10;86703.22;;;-145.17;57.93
32759;BME280;19125;52.360;9.974;2023-05-23T12:19:35;86731.00;;;-145.17;58.47
32759;BME280;19125;52.360;9.974;2023-05-23T12:22:05;86590.09;;;-145.17;56.84
32759;BME280;19125;52.360;9.974;2023-05-23T12:24:31;86500.81;;;-145.17;55.44
32759;BME280;19125;52.360;9.974;2023-05-23T12:26:58;86298.38;;;-145.17;53.62
32759;BME280;19125;52.360;9.974;2023-05-23T12:29:33;86262.66;;;-145.17;52.54
32759;BME280;19125;52.360;9.974;2023-05-23T12:32:03;86191.22;;;-145.17;51.17
32759;BME280;19125;52.360;9.974;2023-05-23T12:34:29;86181.31;;;-145.17;50.49
32759;BME280;19125;52.360;9.974;2023-05-23T12:36:59;86149.56;;;-145.17;49.68
32759;BME280;19125;52.360;9.974;2023-05-23T12:39:27;86097.97;;;-145.17;49.25
32759;BME280;19125;52.360;9.974;2023-05-23T12:41:54;86070.19;;;-145.17;48.71
32759;BME280;19125;52.360;9.974;2023-05-23T12:44:20;86032.47;;;-145.17;47.38
32759;BME280;19125;52.360;9.974;2023-05-23T12:46:53;86072.16;;;-145.17;47.16
32759;BME280;19125;52.360;9.974;2023-05-23T12:49:28;86095.97;;;-145.17;46.98
32759;BME280;19125;52.360;9.974;2023-05-23T12:51:53;86074.16;;;-145.17;47.39
32759;BME280;19125;52.360;9.974;2023-05-23T12:54:19;85988.81;;;-145.17;46.92
32759;BME280;19125;52.360;9.974;2023-05-23T12:56:44;85992.78;;;-145.17;46.56
32759;BME280;19125;52.360;9.974;2023-05-23T12:59:09;85976.91;;;-145.17;46.38